createdAt,value
2022-11-17T00:03:17.552Z,970.58
2022-11-17T00:09:01.637Z,970.57
2022-11-17T00:14:44.669Z,970.43
2022-11-17T00:20:28.228Z,970.37
2022-11-17T00:26:11.071Z,970.25
2022-11-17T00:31:54.060Z,970.1
2022-11-17T00:37:38.779Z,970.02
2022-11-17T00:43:21.703Z,969.94
2022-11-17T00:49:05.267Z,969.92
2022-11-17T00:54:49.231Z,969.94
2022-11-17T01:00:32.196Z,969.82
2022-11-17T01:06:15.787Z,969.85
2022-11-17T01:11:58.798Z,969.75
2022-11-17T01:17:41.801Z,969.53
2022-11-17T01:23:24.814Z,969.34
2022-11-17T01:29:08.303Z,969.21
2022-11-17T01:34:51.492Z,969.04
2022-11-17T01:40:34.529Z,969.1
2022-11-17T01:46:20.696Z,969.18
2022-11-17T01:52:06.857Z,969.11
2022-11-17T01:57:51.926Z,968.98
2022-11-17T02:03:36.444Z,968.78
2022-11-17T02:09:21.641Z,968.65
2022-11-17T02:15:05.315Z,968.57
2022-11-17T02:20:55.706Z,968.29
2022-11-17T02:26:52.310Z,968.34
2022-11-17T02:32:40.789Z,968.39
2022-11-17T02:38:28.921Z,968.22
2022-11-17T02:44:14.237Z,968.14
2022-11-17T02:50:00.331Z,968.17
2022-11-17T02:55:47.907Z,968.21
2022-11-17T03:01:42.495Z,968.06
2022-11-17T03:07:34.002Z,968.01
2022-11-17T03:13:19.484Z,967.82
2022-11-17T03:19:07.127Z,967.94
2022-11-17T03:24:51.646Z,968.21
2022-11-17T03:30:38.530Z,968.54
2022-11-17T03:36:23.816Z,968.52
2022-11-17T03:42:08.848Z,968.52
2022-11-17T03:47:54.347Z,968.57
2022-11-17T03:53:37.773Z,968.59
2022-11-17T03:59:25.339Z,968.46
2022-11-17T04:05:08.694Z,968.59
2022-11-17T04:10:52.753Z,968.7
2022-11-17T04:16:35.584Z,968.88
2022-11-17T04:22:18.351Z,968.82
2022-11-17T04:28:01.322Z,968.87
2022-11-17T04:33:45.107Z,968.97
2022-11-17T04:39:27.905Z,968.94
2022-11-17T04:45:11.284Z,969
2022-11-17T04:50:57.719Z,969.06
2022-11-17T04:56:40.945Z,969.12
2022-11-17T05:02:23.648Z,969.19
2022-11-17T05:08:06.485Z,969.27
2022-11-17T05:13:49.374Z,969.29
2022-11-17T05:19:33.513Z,969.27
2022-11-17T05:25:16.428Z,969.38
2022-11-17T05:30:59.523Z,969.42
2022-11-17T05:36:42.689Z,969.53
2022-11-17T05:42:25.508Z,969.65
2022-11-17T05:48:08.584Z,969.61
2022-11-17T05:53:51.705Z,969.8
2022-11-17T05:59:37.356Z,969.87
2022-11-17T06:05:21.560Z,969.84
2022-11-17T06:11:04.587Z,969.99
2022-11-17T06:16:48.862Z,970.05
2022-11-17T06:22:32.265Z,970.03
2022-11-17T06:28:17.559Z,970.12
2022-11-17T06:34:00.607Z,970.26
2022-11-17T06:39:43.580Z,970.36
2022-11-17T06:45:27.525Z,970.35
2022-11-17T06:51:10.809Z,970.51
2022-11-17T06:56:53.937Z,970.55
2022-11-17T07:02:37.086Z,970.75
2022-11-17T07:08:20.407Z,970.88
2022-11-17T07:14:03.715Z,970.93
2022-11-17T07:19:47.125Z,970.95
2022-11-17T07:25:30.376Z,971.19
2022-11-17T07:31:14.537Z,971.08
2022-11-17T07:36:57.807Z,971.06
2022-11-17T07:42:40.926Z,971.28
2022-11-17T07:48:24.054Z,971.31
2022-11-17T07:54:08.375Z,971.33
2022-11-17T07:59:51.770Z,971.56
2022-11-17T08:05:43.507Z,971.64
2022-11-17T08:11:28.001Z,971.64
2022-11-17T08:17:11.238Z,971.53
2022-11-17T08:22:54.595Z,971.87
2022-11-17T08:28:38.570Z,971.95
2022-11-17T08:34:22.723Z,972
2022-11-17T08:40:06.505Z,972.11
2022-11-17T08:45:49.941Z,972.15
2022-11-17T08:51:33.074Z,972.23
2022-11-17T08:57:16.513Z,972.37
2022-11-17T09:02:59.883Z,972.41
2022-11-17T09:08:47.975Z,972.39
2022-11-17T09:14:32.660Z,972.5
2022-11-17T09:20:16.270Z,972.53
2022-11-17T09:25:59.678Z,972.59
2022-11-17T09:31:43.095Z,972.49
2022-11-17T09:37:26.207Z,972.63
2022-11-17T09:43:16.488Z,972.88
2022-11-17T09:49:03.608Z,972.87
2022-11-17T09:54:50.157Z,973.03
2022-11-17T10:00:34.133Z,973.02
2022-11-17T10:06:20.699Z,972.97
2022-11-17T10:12:11.450Z,973.06
2022-11-17T10:17:54.926Z,973.14
2022-11-17T10:23:46.792Z,973.17
2022-11-17T10:29:31.101Z,973.45
2022-11-17T10:35:18.866Z,973.29
2022-11-17T10:41:04.259Z,973.38
2022-11-17T10:47:03.223Z,973.47
2022-11-17T10:52:46.757Z,973.52
2022-11-17T10:58:30.516Z,973.53
2022-11-17T11:04:24.900Z,973.42
2022-11-17T11:10:14.000Z,973.57
2022-11-17T11:15:57.249Z,973.49
2022-11-17T11:21:48.076Z,973.51
2022-11-17T11:27:36.029Z,973.64
2022-11-17T11:33:28.753Z,973.69
2022-11-17T11:39:14.500Z,973.65
2022-11-17T11:45:09.624Z,973.68
2022-11-17T11:50:57.879Z,973.71
2022-11-17T11:56:42.522Z,973.71
2022-11-17T12:02:31.872Z,973.61
2022-11-17T12:08:18.582Z,973.75
2022-11-17T12:14:03.809Z,973.79
2022-11-17T12:19:53.551Z,973.82
2022-11-17T12:25:42.905Z,973.87
2022-11-17T12:31:49.159Z,973.83
2022-11-17T12:37:32.319Z,973.8
2022-11-17T12:43:25.264Z,973.81
2022-11-17T12:49:13.378Z,973.83
2022-11-17T12:55:01.810Z,973.92
2022-11-17T13:00:52.025Z,973.94
2022-11-17T13:06:37.743Z,973.93
2022-11-17T13:12:22.178Z,974.13
2022-11-17T13:18:09.209Z,974.1
2022-11-17T13:23:53.318Z,974.18
2022-11-17T13:29:36.557Z,974.29
2022-11-17T13:35:24.453Z,974.29
2022-11-17T13:41:07.417Z,974.27
2022-11-17T13:46:51.171Z,974.25
2022-11-17T13:52:46.809Z,974.36
2022-11-17T13:58:35.143Z,974.45
2022-11-17T14:04:22.064Z,974.49
2022-11-17T14:10:26.323Z,974.32
2022-11-17T14:16:20.319Z,974.38
2022-11-17T14:22:05.465Z,974.4
2022-11-17T14:27:53.435Z,974.45
2022-11-17T14:33:36.835Z,974.5
2022-11-17T14:39:20.288Z,974.55
2022-11-17T14:45:03.889Z,974.61
2022-11-17T14:50:47.154Z,974.66
2022-11-17T14:56:30.227Z,974.75
2022-11-17T15:02:13.455Z,974.81
2022-11-17T15:07:56.659Z,974.86
2022-11-17T15:13:39.523Z,974.96
2022-11-17T15:19:22.696Z,975
2022-11-17T15:25:06.371Z,975.05
2022-11-17T15:30:49.218Z,975.07
2022-11-17T15:36:34.274Z,975.23
2022-11-17T15:42:17.322Z,975.24
2022-11-17T15:48:00.431Z,975.32
2022-11-17T15:53:44.746Z,975.3
2022-11-17T15:59:27.906Z,975.3
2022-11-17T16:05:11.710Z,975.37
2022-11-17T16:10:54.871Z,975.41
2022-11-17T16:16:38.801Z,975.49
2022-11-17T16:22:22.067Z,975.55
2022-11-17T16:28:05.512Z,975.53
2022-11-17T16:33:52.668Z,975.51
2022-11-17T16:39:35.797Z,975.47
2022-11-17T16:45:18.781Z,975.65
2022-11-17T16:51:06.914Z,975.65
2022-11-17T16:56:50.268Z,975.71
2022-11-17T17:02:33.424Z,975.72
2022-11-17T17:08:17.115Z,975.72
2022-11-17T17:14:01.317Z,975.72
2022-11-17T17:19:44.518Z,975.79
2022-11-17T17:25:27.523Z,975.86
2022-11-17T17:31:13.416Z,975.92
2022-11-17T17:37:04.009Z,976.01
2022-11-17T17:42:47.538Z,976.04
2022-11-17T17:48:30.871Z,976.04
2022-11-17T17:54:15.312Z,976.16
2022-11-17T17:59:58.304Z,976.21
2022-11-17T18:05:41.390Z,976.3
2022-11-17T18:11:24.742Z,976.31
2022-11-17T18:17:07.730Z,976.46
2022-11-17T18:22:50.729Z,976.61
2022-11-17T18:28:33.756Z,976.64
2022-11-17T18:34:18.877Z,976.65
2022-11-17T18:40:01.895Z,976.72
2022-11-17T18:45:45.336Z,976.71
2022-11-17T18:51:29.509Z,976.8
2022-11-17T18:57:12.389Z,976.87
2022-11-17T19:02:55.430Z,976.87
2022-11-17T19:08:38.733Z,976.98
2022-11-17T19:14:22.700Z,976.98
2022-11-17T19:20:06.111Z,976.98
2022-11-17T19:25:49.138Z,977.09
2022-11-17T19:31:32.479Z,977.13
2022-11-17T19:37:15.486Z,977.22
2022-11-17T19:42:58.299Z,977.19
2022-11-17T19:48:41.757Z,977.21
2022-11-17T19:54:25.792Z,977.25
2022-11-17T20:00:10.073Z,977.29
2022-11-17T20:05:52.982Z,977.32
2022-11-17T20:11:36.368Z,977.45
2022-11-17T20:17:19.190Z,977.44
2022-11-17T20:23:02.213Z,977.39
2022-11-17T20:28:45.387Z,977.42
2022-11-17T20:34:28.532Z,977.55
2022-11-17T20:40:12.458Z,977.57
2022-11-17T20:45:57.494Z,977.64
2022-11-17T20:51:40.724Z,977.68
2022-11-17T20:57:24.997Z,977.7
2022-11-17T21:03:08.158Z,977.8
2022-11-17T21:08:51.202Z,977.85
2022-11-17T21:14:34.358Z,977.87
2022-11-17T21:20:17.560Z,977.99
2022-11-17T21:26:03.097Z,978.1
2022-11-17T21:31:46.182Z,978.14
2022-11-17T21:37:28.998Z,978.19
2022-11-17T21:43:12.008Z,978.27
2022-11-17T21:48:55.826Z,978.4
2022-11-17T21:54:38.983Z,978.48
2022-11-17T22:00:23.488Z,978.54
2022-11-17T22:06:11.791Z,978.48
2022-11-17T22:11:56.233Z,978.54
2022-11-17T22:17:39.386Z,978.47
2022-11-17T22:23:22.420Z,978.48
2022-11-17T22:29:06.215Z,978.58
2022-11-17T22:34:49.799Z,978.56
2022-11-17T22:40:33.082Z,978.56
2022-11-17T22:46:16.030Z,978.57
2022-11-17T22:51:59.337Z,978.57
2022-11-17T22:57:42.335Z,978.71
2022-11-17T23:03:25.372Z,978.82
2022-11-17T23:09:09.943Z,978.86
2022-11-17T23:14:53.063Z,978.94
2022-11-17T23:20:36.625Z,978.96
2022-11-17T23:26:19.893Z,979.07
2022-11-17T23:32:04.285Z,979.2
2022-11-17T23:37:47.635Z,979.23
2022-11-17T23:43:30.847Z,979.35
2022-11-17T23:49:14.031Z,979.47
2022-11-17T23:54:58.266Z,979.5
